Hovedside
METAR-TAF:

METAR-TAF

Lufthavner :

Svalbard lufthavn. Longyear

Longyearbyen, Norge

breddegrad: 78-15N, lengdegrad: 015-28E, høyde over havet: 2 m

Gjeldene værobservasjon

Denne rapporten ble laget for 51 minutter siden, klokken 16:50 UTC
Vind 13 kt fra Vest
Temperatur 0°C
Luftfuktighet 64%
Trykk 1014 hPa
Sikt 10 km eller mer
Få skyer i en høyde av 3000 ft
Spredte skyer i en høyde av 15000 ft

METAR: ENSB 261650Z 28013KT 9999 FEW030 SCT150 00/M06 Q1014 RMK WIND 1400FT 28015KT

Tid: 19:41 (17:41 UTC)

Varsel

Varsel gyldig fra 26. klokken 12 UTC til 27. klokken 12 UTC
Vind 5 kt fra skiftende retning
Sikt 10 km eller mer
Få skyer i en høyde av 1200 ft
Brutte skyer i en høyde av 3000 ft
Midlertidig
fra 26. klokken 12 UTC til 26. klokken 21 UTC
Vind 12 kt fra Vest-nordvest

TAF: ENSB 2612/2712 VRB05KT 9999 FEW012 BKN030 TEMPO 2612/2621 29012KT

Værobservasjoner og værvarsel for over 4000 flyplasser (METAR- og TAF-rapporter).

Tilgjengelige stasjoner er representert av de røde og gule prikkene på kartet.

Hold musepekeren over prikken for å se navnet på stasjonen.

Klikk så for å se værobservasjoner og -varsler.

For å forandre kartet kan du klikke på den grønne knappen med svart kryss for å zoome inn, på den grønne knappen med strek for å zoome ut, eller på de grønne pilene for å se tilstøtende kart.


METAR-TAF: